Time;durP1;ratioP1;P1;durP2;ratioP2;P2;SDS_P1;SDS_P2;PMS_P1;PMS_P2;Temp;Humidity;BMP_temperature;BMP_pressure;BME280_temperature;BME280_humidity;BME280_pressure;Samples;Min_cycle;Max_cycle;Signal;HPM_P1;HPM_P2
2023/04/13 04:03:36;;;;;;;13.23;7.30;;;;;;;11.20;50.35;99492.84;5609239;31;78016;-57
2023/04/13 04:06:40;;;;;;;12.18;7.43;;;;;;;11.20;50.35;99492.84;5596137;31;33114;-57
2023/04/13 04:09:42;;;;;;;12.65;6.80;;;;;;;10.75;49.50;99485.56;5580837;31;33474;-57
2023/04/13 04:12:45;;;;;;;12.07;7.70;;;;;;;10.77;50.43;99494.09;5583792;31;33835;-57
2023/04/13 04:15:47;;;;;;;9.98;6.78;;;;;;;10.80;50.93;99495.41;5583390;31;33612;-57
2023/04/13 04:18:50;;;;;;;13.52;7.25;;;;;;;10.78;52.09;99500.25;5582636;31;33615;-58
2023/04/13 04:21:56;;;;;;;14.30;7.30;;;;;;;10.79;51.04;99496.47;5583599;31;33733;-58
2023/04/13 04:25:00;;;;;;;11.23;7.10;;;;;;;10.78;50.26;99501.03;5583458;31;33313;-57
2023/04/13 04:28:05;;;;;;;10.55;6.93;;;;;;;10.69;56.32;99502.84;5583401;31;35005;-58
2023/04/13 04:31:09;;;;;;;13.75;7.30;;;;;;;10.74;53.48;99499.28;5582801;32;34319;-58
2023/04/13 04:34:12;;;;;;;11.48;6.78;;;;;;;10.72;52.09;99504.13;5583865;31;33641;-58
2023/04/13 04:37:14;;;;;;;11.68;7.85;;;;;;;10.74;53.01;99505.44;5583525;31;33161;-58
2023/04/13 04:40:23;;;;;;;14.40;7.00;;;;;;;10.85;53.14;99502.50;5583076;31;33449;-58
2023/04/13 04:43:28;;;;;;;10.27;6.85;;;;;;;10.88;51.78;99507.28;5583015;31;33388;-58
2023/04/13 04:46:30;;;;;;;13.00;6.97;;;;;;;10.95;52.26;99521.06;5582992;31;33069;-58
2023/04/13 04:49:35;;;;;;;12.10;7.43;;;;;;;10.93;51.27;99521.37;5582780;31;34268;-58
2023/04/13 04:52:38;;;;;;;11.52;7.97;;;;;;;10.87;54.00;99514.53;5571194;31;31955;-58
2023/04/13 04:55:41;;;;;;;13.20;8.23;;;;;;;10.84;55.50;99508.97;5563248;32;33251;-57
2023/04/13 04:58:44;;;;;;;17.35;8.18;;;;;;;10.86;51.39;99502.22;5563752;32;33672;-58
2023/04/13 05:01:48;;;;;;;17.50;8.15;;;;;;;10.97;50.72;99502.78;5570127;32;35054;-57
2023/04/13 05:04:52;;;;;;;14.20;8.13;;;;;;;10.97;52.15;99513.50;5583338;31;33655;-57
2023/04/13 05:07:55;;;;;;;17.25;8.18;;;;;;;11.03;59.63;99513.09;5583122;31;34480;-58
2023/04/13 05:10:58;;;;;;;14.70;9.38;;;;;;;10.95;56.19;99507.66;5581976;31;33432;-58
2023/04/13 05:14:00;;;;;;;14.73;8.55;;;;;;;10.93;62.02;99512.53;5571839;32;33163;-58
2023/04/13 05:17:04;;;;;;;17.92;9.15;;;;;;;10.97;57.48;99508.16;5554538;31;33238;-58
2023/04/13 05:20:07;;;;;;;19.50;8.25;;;;;;;11.04;55.69;99508.50;5568941;31;32186;-58
2023/04/13 05:23:11;;;;;;;13.75;8.32;;;;;;;11.08;61.59;99497.97;5558867;31;33297;-57
2023/04/13 05:26:14;;;;;;;20.95;8.85;;;;;;;11.08;53.68;99497.97;5550436;32;33945;-57
2023/04/13 05:29:16;;;;;;;18.65;10.20;;;;;;;11.27;53.66;99504.72;5556416;32;33767;-58
2023/04/13 05:32:25;;;;;;;21.58;8.95;;;;;;;11.27;49.53;99523.50;5566585;32;34520;-57
2023/04/13 05:35:28;;;;;;;19.37;7.85;;;;;;;11.38;52.50;99526.72;5569555;31;33371;-57
2023/04/13 05:38:31;;;;;;;14.00;9.23;;;;;;;11.51;60.12;99517.03;5568405;32;33898;-58
2023/04/13 05:41:34;;;;;;;12.68;8.48;;;;;;;11.68;49.04;99519.78;5567678;32;34479;-57
2023/04/13 05:44:36;;;;;;;14.40;8.40;;;;;;;11.78;53.11;99516.06;5569392;31;33788;-57
2023/04/13 05:47:39;;;;;;;12.20;7.40;;;;;;;11.79;50.49;99511.47;5569017;31;33964;-58
2023/04/13 05:50:43;;;;;;;10.82;6.75;;;;;;;11.90;48.37;99510.94;5569444;31;34137;-57
2023/04/13 05:53:46;;;;;;;13.95;7.47;;;;;;;12.11;46.76;99513.84;5568812;31;33226;-57
2023/04/13 05:56:48;;;;;;;11.80;7.45;;;;;;;12.12;48.07;99510.06;5568932;32;33566;-57
2023/04/13 05:59:52;;;;;;;12.43;7.35;;;;;;;12.12;46.61;99507.38;5568287;32;33506;-58
2023/04/13 06:02:55;;;;;;;12.13;7.07;;;;;;;12.21;49.54;99510.88;5568339;31;32260;-57
2023/04/13 06:05:58;;;;;;;12.40;7.35;;;;;;;12.14;51.35;99520.50;5568616;32;33710;-57
2023/04/13 06:09:01;;;;;;;12.57;7.35;;;;;;;12.10;48.38;99520.34;5565341;32;33347;-58
2023/04/13 06:12:04;;;;;;;14.80;7.55;;;;;;;12.14;53.23;99523.19;5568779;32;32947;-57
2023/04/13 06:15:07;;;;;;;19.10;8.65;;;;;;;12.16;52.09;99521.00;5566062;31;33125;-57
2023/04/13 06:18:10;;;;;;;15.30;8.77;;;;;;;12.28;55.93;99520.37;5564313;31;32469;-58
2023/04/13 06:21:12;;;;;;;14.85;8.30;;;;;;;12.25;52.52;99510.25;5567658;32;33390;-58
2023/04/13 06:24:16;;;;;;;13.73;8.55;;;;;;;12.16;49.17;99516.41;5562580;32;33674;-58
2023/04/13 06:27:19;;;;;;;16.62;8.60;;;;;;;12.30;48.75;99524.34;5565003;31;33267;-58
2023/04/13 06:30:24;;;;;;;13.60;8.70;;;;;;;12.28;46.37;99518.47;5559404;32;31910;-58
2023/04/13 06:33:27;;;;;;;11.02;8.27;;;;;;;12.35;48.42;99515.34;5559500;32;33656;-58
2023/04/13 06:36:29;;;;;;;17.77;8.80;;;;;;;12.65;69.25;99525.22;5555338;32;31766;-58
2023/04/13 06:39:36;;;;;;;16.67;8.57;;;;;;;12.83;53.15;99525.22;5555145;32;34357;-58
2023/04/13 06:42:41;;;;;;;15.95;8.98;;;;;;;12.98;45.53;99516.69;5555887;31;32687;-57
2023/04/13 06:46:01;;;;;;;14.05;8.10;;;;;;;12.88;44.55;99525.88;5560130;32;31520;-57
2023/04/13 06:49:06;;;;;;;21.87;8.38;;;;;;;12.96;51.14;99518.13;5555461;32;31770;-58
2023/04/13 06:52:08;;;;;;;12.23;7.07;;;;;;;13.08;47.29;99529.81;5565338;31;31761;-58
2023/04/13 06:55:12;;;;;;;14.80;6.65;;;;;;;13.09;51.19;99522.53;5556966;32;32112;-58
2023/04/13 06:58:14;;;;;;;10.02;6.57;;;;;;;13.08;44.51;99529.81;5547891;32;32765;-58
2023/04/13 07:01:17;;;;;;;13.52;6.85;;;;;;;13.03;45.06;99532.66;5547509;32;33291;-58
2023/04/13 07:04:20;;;;;;;14.73;7.00;;;;;;;12.96;44.94;99531.56;5554532;32;33721;-58
2023/04/13 07:07:24;;;;;;;17.45;6.87;;;;;;;12.88;45.12;99535.81;5566118;32;34353;-57
2023/04/13 07:10:29;;;;;;;15.82;7.28;;;;;;;13.03;58.00;99531.88;5562838;32;31414;-58
2023/04/13 07:13:33;;;;;;;16.05;7.37;;;;;;;13.10;46.04;99537.56;5565984;31;34587;-58
2023/04/13 07:16:35;;;;;;;11.90;7.00;;;;;;;12.98;45.66;99537.41;5557836;31;34418;-57
2023/04/13 07:19:38;;;;;;;17.25;7.80;;;;;;;12.99;48.55;99545.16;5565894;32;31876;-58
2023/04/13 07:22:40;;;;;;;16.45;8.38;;;;;;;13.06;46.57;99545.47;5555060;32;31849;-58
2023/04/13 07:25:43;;;;;;;15.02;7.90;;;;;;;13.28;48.49;99549.16;5565886;32;33313;-58
2023/04/13 07:28:47;;;;;;;14.85;8.00;;;;;;;13.28;47.86;99554.53;5555670;31;33100;-58
2023/04/13 07:31:51;;;;;;;12.82;7.70;;;;;;;13.34;48.66;99548.69;5562020;32;33176;-58
2023/04/13 07:34:58;;;;;;;10.98;7.37;;;;;;;13.37;46.41;99548.00;5564849;31;34966;-58
2023/04/13 07:38:00;;;;;;;12.45;7.57;;;;;;;13.31;46.94;99546.63;5562711;31;33089;-58
2023/04/13 07:41:03;;;;;;;12.82;7.93;;;;;;;13.42;46.88;99544.37;5566539;32;33636;-58
2023/04/13 07:44:06;;;;;;;15.93;7.25;;;;;;;13.40;46.11;99547.38;5567256;31;33414;-58
2023/04/13 07:47:09;;;;;;;20.05;7.18;;;;;;;13.45;47.52;99541.06;5567959;32;34318;-58
2023/04/13 07:50:12;;;;;;;11.80;6.87;;;;;;;13.59;47.39;99546.25;5566965;32;33612;-58
2023/04/13 07:53:15;;;;;;;12.15;7.43;;;;;;;13.69;46.02;99545.91;5567155;31;33295;-58
2023/04/13 07:56:19;;;;;;;13.00;7.10;;;;;;;13.73;47.38;99546.06;5566355;31;34411;-58
2023/04/13 07:59:23;;;;;;;12.70;6.93;;;;;;;13.92;47.07;99541.09;5566752;32;34225;-58
2023/04/13 08:02:27;;;;;;;11.80;6.87;;;;;;;14.29;50.56;99533.31;5559621;31;32117;-58
2023/04/13 08:05:34;;;;;;;62.42;8.95;;;;;;;14.56;60.19;99527.47;5560648;32;33078;-58
2023/04/13 08:08:37;;;;;;;13.18;6.47;;;;;;;14.85;50.60;99527.75;5564111;32;33655;-58
2023/04/13 08:11:41;;;;;;;17.00;6.82;;;;;;;14.64;46.74;99535.84;5561126;32;33190;-58
2023/04/13 08:14:44;;;;;;;14.68;6.90;;;;;;;14.60;44.27;99534.91;5560880;32;33450;-58
2023/04/13 08:17:48;;;;;;;11.38;6.62;;;;;;;14.47;44.06;99529.41;5564856;32;33796;-58
2023/04/13 08:20:53;;;;;;;11.82;6.05;;;;;;;14.47;47.13;99537.50;5561715;32;34392;-58
2023/04/13 08:23:57;;;;;;;10.17;5.40;;;;;;;14.52;44.37;99548.12;5561712;32;33223;-58
2023/04/13 08:26:59;;;;;;;12.65;5.28;;;;;;;14.62;47.65;99540.78;5562635;32;32565;-58
2023/04/13 08:30:04;;;;;;;9.20;5.32;;;;;;;14.75;46.62;99545.13;5562238;32;33724;-58
2023/04/13 08:33:07;;;;;;;13.85;6.20;;;;;;;14.78;45.81;99549.88;5566194;31;34390;-58
2023/04/13 08:36:11;;;;;;;11.20;5.28;;;;;;;14.63;42.81;99547.75;5553393;31;31860;-58
2023/04/13 08:39:14;;;;;;;20.40;6.50;;;;;;;14.66;51.84;99552.47;5561815;32;32637;-58
2023/04/13 08:42:17;;;;;;;28.95;9.32;;;;;;;14.78;57.95;99547.16;5564986;32;34272;-58
2023/04/13 08:45:20;;;;;;;10.82;5.18;;;;;;;14.75;45.74;99537.03;5566326;32;33357;-58
2023/04/13 08:48:23;;;;;;;13.90;5.55;;;;;;;14.72;42.06;99538.47;5565867;31;33331;-58
2023/04/13 08:51:28;;;;;;;11.18;4.85;;;;;;;14.62;42.77;99536.16;5569688;31;31689;-58
2023/04/13 08:54:33;;;;;;;9.88;5.25;;;;;;;14.54;42.52;99524.31;5564378;31;33510;-58
2023/04/13 08:57:37;;;;;;;8.43;4.87;;;;;;;14.60;44.79;99534.91;5566162;32;33564;-58
2023/04/13 09:00:42;;;;;;;11.55;5.80;;;;;;;14.90;52.80;99536.47;5564255;32;33841;-58
2023/04/13 09:04:06;;;;;;;12.07;5.20;;;;;;;14.99;52.59;99539.06;5563549;32;34585;-58
2023/04/13 09:07:21;;;;;;;13.03;5.43;;;;;;;14.96;44.49;99527.00;5561440;32;33778;-58
2023/04/13 09:10:25;;;;;;;8.65;5.18;;;;;;;15.03;51.48;99534.59;5565543;32;33699;-58
2023/04/13 09:13:28;;;;;;;12.15;5.50;;;;;;;15.28;62.05;99532.78;5566518;31;33205;-58
2023/04/13 09:16:39;;;;;;;8.90;5.60;;;;;;;15.34;47.34;99527.97;5566090;32;33237;-58
2023/04/13 09:19:42;;;;;;;12.00;5.18;;;;;;;15.40;47.63;99526.66;5566395;31;33316;-58
2023/04/13 09:22:46;;;;;;;15.30;5.28;;;;;;;15.49;44.50;99521.94;5566542;32;34907;-58
2023/04/13 09:26:11;;;;;;;8.75;4.80;;;;;;;15.52;43.91;99516.66;5566183;32;33749;-58
2023/04/13 09:29:16;;;;;;;10.05;4.90;;;;;;;15.65;42.09;99517.47;5560348;32;33692;-58
2023/04/13 09:32:24;;;;;;;13.73;4.65;;;;;;;15.54;42.43;99515.56;5561723;32;33722;-58
2023/04/13 09:35:29;;;;;;;13.70;5.37;;;;;;;15.63;42.86;99514.34;5565189;32;34137;-58
2023/04/13 09:38:32;;;;;;;8.98;4.82;;;;;;;15.74;48.97;99514.72;5557824;32;33430;-58
2023/04/13 09:41:37;;;;;;;9.48;4.18;;;;;;;15.90;46.73;99518.34;5555907;32;33691;-58
2023/04/13 09:44:40;;;;;;;10.90;4.40;;;;;;;15.95;49.14;99522.72;5558368;32;34365;-58
2023/04/13 09:47:44;;;;;;;7.53;4.40;;;;;;;15.98;45.43;99517.44;5558741;32;33547;-58
2023/04/13 09:50:58;;;;;;;8.25;4.00;;;;;;;15.99;42.12;99512.81;5553052;32;33680;-58
2023/04/13 09:54:00;;;;;;;12.30;3.90;;;;;;;16.00;40.05;99514.41;5568060;32;34045;-58
2023/04/13 09:57:03;;;;;;;8.60;4.03;;;;;;;16.06;44.60;99520.34;5567116;32;33679;-58
2023/04/13 10:00:13;;;;;;;10.98;4.32;;;;;;;16.08;47.30;99505.37;5568070;32;34295;-58
2023/04/13 10:03:21;;;;;;;7.35;4.43;;;;;;;16.21;44.82;99500.75;5557831;32;33295;-58
2023/04/13 10:06:23;;;;;;;8.65;4.45;;;;;;;16.27;41.76;99506.75;5565970;32;34248;-58
2023/04/13 10:09:26;;;;;;;5.82;3.58;;;;;;;16.27;40.63;99499.41;5566869;31;33698;-58
2023/04/13 10:12:30;;;;;;;6.22;3.17;;;;;;;16.41;53.26;99502.53;5558662;32;32381;-58
2023/04/13 10:15:33;;;;;;;7.15;3.80;;;;;;;16.50;40.01;99502.44;5557700;32;33859;-58
2023/04/13 10:18:43;;;;;;;10.23;4.20;;;;;;;16.35;41.56;99500.41;5559250;32;34355;-58
2023/04/13 10:21:48;;;;;;;19.23;7.20;;;;;;;16.36;39.96;99502.00;5564857;32;33319;-58
2023/04/13 10:24:51;;;;;;;8.30;4.25;;;;;;;16.50;47.30;99507.84;5568416;32;33680;-58
2023/04/13 10:27:58;;;;;;;10.38;4.28;;;;;;;16.45;44.54;99505.34;5567855;32;34380;-58
2023/04/13 10:31:04;;;;;;;7.07;4.12;;;;;;;16.41;42.28;99510.66;5568431;32;34387;-58
2023/04/13 10:34:07;;;;;;;;;;;;;;;16.35;41.55;99505.81;5549307;32;33636;-57
2023/04/13 10:37:18;;;;;;;7.93;4.32;;;;;;;16.25;44.04;99509.78;5549719;32;33949;-58
2023/04/13 10:40:20;;;;;;;12.00;5.20;;;;;;;16.17;41.85;99502.59;5563274;32;33392;-58
2023/04/13 10:43:30;;;;;;;14.55;4.95;;;;;;;16.10;41.08;99505.06;5563798;32;33195;-57
2023/04/13 10:46:34;;;;;;;17.25;5.25;;;;;;;16.04;42.67;99503.72;5561795;32;34228;-58
2023/04/13 10:49:37;;;;;;;7.80;4.40;;;;;;;16.01;42.66;99507.09;5567313;32;33640;-58
2023/04/13 10:52:41;;;;;;;8.30;4.30;;;;;;;16.04;47.93;99501.78;5568571;32;33686;-58
2023/04/13 10:55:43;;;;;;;6.43;4.12;;;;;;;16.20;51.73;99493.78;5566825;32;33326;-58
2023/04/13 10:58:52;;;;;;;7.87;4.32;;;;;;;16.09;46.18;99485.34;5561551;32;34457;-58
2023/04/13 11:01:55;;;;;;;9.65;4.97;;;;;;;16.06;45.43;99483.31;5563546;32;35243;-58
2023/04/13 11:04:58;;;;;;;9.23;4.80;;;;;;;16.09;43.86;99481.84;5561896;32;34369;-58
2023/04/13 11:08:00;;;;;;;7.50;4.37;;;;;;;16.05;44.81;99470.13;5567092;32;33627;-58
2023/04/13 11:11:04;;;;;;;6.53;4.93;;;;;;;16.03;45.29;99461.59;5564984;32;35095;-58
2023/04/13 11:14:06;;;;;;;9.50;4.50;;;;;;;16.21;53.03;99469.09;5567716;32;33715;-58
2023/04/13 11:17:13;;;;;;;7.60;4.57;;;;;;;16.27;46.33;99472.38;5565374;32;34294;-58
2023/04/13 11:20:16;;;;;;;10.15;4.10;;;;;;;16.31;43.50;99473.25;5566738;32;33961;-58
2023/04/13 11:23:19;;;;;;;9.02;4.57;;;;;;;16.51;50.17;99473.47;5566130;32;32228;-58
2023/04/13 11:26:36;;;;;;;7.85;4.10;;;;;;;16.67;44.12;99468.91;5564477;32;34428;-58
2023/04/13 11:29:40;;;;;;;8.32;3.83;;;;;;;16.72;44.67;99457.03;5555594;32;34274;-58
2023/04/13 11:32:43;;;;;;;8.00;3.85;;;;;;;16.90;46.67;99453.75;5556842;32;35167;-58
2023/04/13 11:35:46;;;;;;;8.85;3.75;;;;;;;16.91;44.98;99451.81;5567474;32;33690;-58
2023/04/13 11:38:53;;;;;;;6.47;3.33;;;;;;;16.97;43.60;99452.37;5565918;32;33718;-58
2023/04/13 11:41:56;;;;;;;8.00;3.55;;;;;;;17.11;46.24;99450.03;5561913;32;33679;-58
2023/04/13 11:44:58;;;;;;;6.25;3.08;;;;;;;17.04;43.40;99444.44;5557982;32;33825;-58
2023/04/13 11:48:04;;;;;;;6.70;3.10;;;;;;;17.09;39.96;99452.31;5560799;32;34452;-58
2023/04/13 11:51:08;;;;;;;7.57;3.80;;;;;;;17.07;38.75;99447.22;5567611;32;33879;-58
2023/04/13 11:54:11;;;;;;;10.30;3.65;;;;;;;17.01;39.67;99450.53;5563296;32;33722;-58
2023/04/13 11:57:14;;;;;;;7.22;3.28;;;;;;;17.02;40.08;99442.09;5557363;32;33664;-58
2023/04/13 12:00:22;;;;;;;9.60;3.75;;;;;;;17.10;46.06;99440.34;5562002;32;34368;-58
2023/04/13 12:03:25;;;;;;;7.20;3.80;;;;;;;17.24;45.91;99440.72;5563235;32;33332;-58
2023/04/13 12:06:41;;;;;;;8.52;3.95;;;;;;;17.36;42.47;99435.22;5557287;32;33658;-58
2023/04/13 12:09:46;;;;;;;8.82;4.30;;;;;;;17.28;44.94;99432.69;5556811;32;33277;-58
2023/04/13 12:13:01;;;;;;;9.18;4.00;;;;;;;17.20;41.18;99434.41;5567293;32;33640;-58
2023/04/13 12:16:25;;;;;;;11.48;4.18;;;;;;;17.14;41.84;99423.03;5567161;32;34330;-58
2023/04/13 12:19:53;;;;;;;8.25;3.72;;;;;;;17.11;41.67;99418.31;5564086;32;33723;-58
2023/04/13 12:22:57;;;;;;;8.40;4.18;;;;;;;17.08;50.64;99410.88;5560272;32;34147;-58
2023/04/13 12:26:13;;;;;;;8.50;3.70;;;;;;;17.16;54.72;99417.28;5569915;32;33709;-58
2023/04/13 12:29:38;;;;;;;9.05;4.60;;;;;;;17.21;46.16;99410.81;5569554;32;33815;-58
2023/04/13 12:32:45;;;;;;;8.63;3.63;;;;;;;17.18;44.08;99420.44;5563669;32;33848;-58
2023/04/13 12:35:48;;;;;;;7.37;3.97;;;;;;;17.14;42.29;99414.13;5568778;32;33626;-58
2023/04/13 12:38:50;;;;;;;5.28;3.80;;;;;;;17.07;40.08;99395.78;5566602;32;33610;-58
2023/04/13 12:41:53;;;;;;;10.73;4.37;;;;;;;17.12;46.23;99392.06;5566217;32;33734;-58
2023/04/13 12:44:55;;;;;;;10.02;4.22;;;;;;;17.08;42.02;99396.56;5569439;32;33621;-58
2023/04/13 12:47:58;;;;;;;8.00;4.10;;;;;;;17.07;41.98;99395.78;5568438;32;33777;-58
2023/04/13 12:51:00;;;;;;;9.65;4.10;;;;;;;17.07;41.85;99395.00;5566525;32;33917;-58
2023/04/13 12:54:07;;;;;;;12.63;4.35;;;;;;;17.28;45.64;99394.75;5569223;32;33688;-58
2023/04/13 12:57:10;;;;;;;7.03;3.67;;;;;;;17.27;40.33;99382.34;5569862;32;33620;-58
2023/04/13 13:00:14;;;;;;;6.30;3.30;;;;;;;17.36;43.56;99378.34;5569319;32;33668;-58
2023/04/13 13:03:16;;;;;;;5.65;3.40;;;;;;;17.43;40.07;99379.66;5568967;32;33601;-58
2023/04/13 13:06:19;;;;;;;7.78;3.95;;;;;;;17.46;44.38;99378.97;5569467;32;34508;-58
2023/04/13 13:09:21;;;;;;;5.22;3.25;;;;;;;17.58;47.75;99376.13;5569247;32;33674;-58
2023/04/13 13:12:28;;;;;;;6.78;3.28;;;;;;;17.56;48.69;99379.19;5570248;32;33577;-58
2023/04/13 13:15:32;;;;;;;6.40;3.10;;;;;;;17.54;43.14;99369.84;5569068;32;33639;-58
2023/04/13 13:18:34;;;;;;;5.90;2.87;;;;;;;17.51;44.74;99373.25;5567445;32;33579;-58
2023/04/13 13:21:51;;;;;;;12.48;2.90;;;;;;;17.49;38.78;99380.97;5563265;32;33745;-58
2023/04/13 13:24:53;;;;;;;8.05;3.28;;;;;;;17.32;39.55;99374.75;5567895;32;34390;-58
2023/04/13 13:27:56;;;;;;;8.50;2.78;;;;;;;17.40;44.16;99374.94;5569082;32;34470;-58
2023/04/13 13:31:02;;;;;;;;;;;;;;;17.46;40.73;99371.59;5569639;32;33731;-58
2023/04/13 13:34:04;;;;;;;8.23;3.47;;;;;;;17.36;41.75;99366.72;5569171;32;33990;-58
2023/04/13 13:37:07;;;;;;;9.90;3.87;;;;;;;17.28;46.03;99362.25;5568002;32;33655;-58
2023/04/13 13:40:12;;;;;;;10.10;3.62;;;;;;;17.32;42.42;99355.81;5550127;32;33628;-58
2023/04/13 13:43:16;;;;;;;6.07;3.37;;;;;;;17.30;41.97;99341.81;5550283;32;34306;-58
2023/04/13 13:46:18;;;;;;;6.00;2.50;;;;;;;17.45;46.94;99347.56;5549952;32;33653;-58
2023/04/13 13:49:21;;;;;;;6.90;2.80;;;;;;;17.38;40.30;99334.62;5549661;32;34338;-58
2023/04/13 13:52:25;;;;;;;9.43;3.30;;;;;;;17.43;39.03;99342.50;5548754;32;33407;-58
2023/04/13 13:55:28;;;;;;;7.15;2.37;;;;;;;17.33;38.78;99345.75;5549718;32;33454;-58
2023/04/13 13:58:30;;;;;;;7.78;2.80;;;;;;;17.33;40.23;99338.41;5550178;32;33632;-58
2023/04/13 14:01:33;;;;;;;7.10;2.45;;;;;;;17.48;54.22;99344.16;5549790;32;34421;-58
2023/04/13 14:04:36;;;;;;;5.40;2.70;;;;;;;17.51;42.21;99348.88;5549918;32;34201;-58
2023/04/13 14:07:40;;;;;;;6.20;2.30;;;;;;;17.49;42.63;99335.69;5549925;32;33685;-58
2023/04/13 14:10:47;;;;;;;6.03;2.33;;;;;;;17.37;41.58;99333.84;5550122;32;33715;-58
2023/04/13 14:13:49;;;;;;;5.37;2.78;;;;;;;17.29;47.85;99329.41;5550128;32;33637;-58
2023/04/13 14:16:52;;;;;;;5.43;2.50;;;;;;;17.28;50.71;99321.63;5549947;32;33676;-58
2023/04/13 14:19:54;;;;;;;8.95;2.50;;;;;;;17.26;41.05;99324.69;5549709;32;33741;-58
2023/04/13 14:22:56;;;;;;;5.93;2.40;;;;;;;17.23;38.58;99328.09;5549904;32;33589;-58
2023/04/13 14:25:59;;;;;;;6.90;2.60;;;;;;;17.20;40.66;99325.31;5549938;32;33838;-58
2023/04/13 14:29:01;;;;;;;6.87;2.35;;;;;;;17.14;40.80;99328.25;5549513;32;33565;-58
2023/04/13 14:32:03;;;;;;;4.22;2.47;;;;;;;17.10;43.24;99321.97;5549800;32;33663;-58
2023/04/13 14:35:06;;;;;;;8.57;2.37;;;;;;;17.09;44.12;99328.53;5549790;32;33713;-58
2023/04/13 14:38:08;;;;;;;6.18;2.50;;;;;;;17.11;46.00;99322.75;5549169;32;33669;-56
2023/04/13 14:41:11;;;;;;;6.68;2.50;;;;;;;17.15;50.31;99320.91;5550065;32;33735;-56
2023/04/13 14:44:13;;;;;;;7.00;2.42;;;;;;;17.17;47.39;99313.25;5549596;32;33627;-56
2023/04/13 14:47:16;;;;;;;4.87;2.70;;;;;;;17.08;41.17;99318.03;5548682;32;33723;-57
2023/04/13 14:50:19;;;;;;;8.57;3.15;;;;;;;17.04;42.41;99325.28;5555519;32;33772;-61
2023/04/13 14:53:22;;;;;;;6.40;2.28;;;;;;;17.05;42.17;99322.25;5549398;32;34377;-57
2023/04/13 14:56:25;;;;;;;6.20;2.67;;;;;;;17.03;43.98;99326.44;5549745;32;33849;-57
2023/04/13 14:59:28;;;;;;;5.57;2.65;;;;;;;17.04;43.95;99330.72;5548915;32;33722;-56
2023/04/13 15:02:30;;;;;;;3.92;2.70;;;;;;;17.10;45.14;99323.91;5549491;32;33773;-56
2023/04/13 15:05:37;;;;;;;12.88;5.18;;;;;;;17.16;55.67;99327.94;5548978;32;34346;-57
2023/04/13 15:08:40;;;;;;;12.75;5.60;;;;;;;17.07;53.80;99328.09;5549784;32;33622;-56
2023/04/13 15:11:43;;;;;;;13.98;5.87;;;;;;;16.93;46.39;99337.78;5549183;32;33666;-57
2023/04/13 15:14:45;;;;;;;10.98;5.90;;;;;;;16.89;50.83;99337.69;5549576;31;33605;-56
2023/04/13 15:17:48;;;;;;;6.80;4.20;;;;;;;16.82;46.99;99332.06;5549660;32;34358;-56
2023/04/13 15:20:50;;;;;;;10.82;5.68;;;;;;;16.74;59.46;99339.19;5549635;32;33740;-57
2023/04/13 15:23:53;;;;;;;12.50;6.85;;;;;;;16.89;55.77;99338.47;5549466;32;33669;-56
2023/04/13 15:26:55;;;;;;;10.45;5.95;;;;;;;16.81;48.12;99344.84;5549453;32;33733;-56
2023/04/13 15:30:02;;;;;;;9.27;5.60;;;;;;;16.72;48.19;99341.50;5549462;32;34110;-57
2023/04/13 15:33:05;;;;;;;11.85;6.85;;;;;;;16.62;52.62;99342.78;5548756;32;34318;-56
2023/04/13 15:36:13;;;;;;;13.13;6.45;;;;;;;16.59;49.38;99342.69;5549331;32;33598;-57
2023/04/13 15:39:15;;;;;;;14.68;6.55;;;;;;;16.56;48.61;99343.38;5549305;32;33898;-56
2023/04/13 15:42:19;;;;;;;15.77;7.05;;;;;;;16.50;50.05;99337.41;5549351;32;33628;-56
2023/04/13 15:45:22;;;;;;;18.35;6.47;;;;;;;16.47;50.50;99343.50;5549066;32;33498;-58
2023/04/13 15:48:25;;;;;;;13.35;7.53;;;;;;;16.48;52.68;99336.97;5549466;32;33497;-56
2023/04/13 15:51:27;;;;;;;14.27;6.82;;;;;;;16.50;48.64;99336.63;5549254;32;34297;-57
2023/04/13 15:54:30;;;;;;;12.60;7.12;;;;;;;16.37;49.78;99344.78;5548868;32;33596;-56
2023/04/13 15:57:32;;;;;;;15.80;7.62;;;;;;;16.35;50.46;99344.31;5548909;32;33683;-56
2023/04/13 16:00:34;;;;;;;15.52;6.53;;;;;;;16.33;51.36;99333.09;5548974;32;34238;-56
2023/04/13 16:03:37;;;;;;;13.57;6.32;;;;;;;16.37;49.69;99338.59;5548602;32;33747;-56
2023/04/13 16:06:41;;;;;;;11.45;7.03;;;;;;;16.30;50.84;99336.47;5548675;32;33734;-56
2023/04/13 16:09:46;;;;;;;16.33;7.40;;;;;;;16.15;54.58;99331.78;5548637;32;34215;-56
2023/04/13 16:12:49;;;;;;;17.50;7.03;;;;;;;16.14;55.94;99333.69;5548877;32;34301;-56
2023/04/13 16:15:56;;;;;;;17.70;7.85;;;;;;;16.01;57.03;99334.88;5548689;32;34344;-56
2023/04/13 16:18:59;;;;;;;15.43;7.45;;;;;;;15.90;59.94;99336.47;5548588;32;33675;-56
2023/04/13 16:22:09;;;;;;;15.60;7.90;;;;;;;15.67;60.45;99328.06;5548662;32;33594;-56
2023/04/13 16:25:14;;;;;;;13.30;7.53;;;;;;;15.61;74.90;99334.78;5548503;32;33607;-57
2023/04/13 16:28:16;;;;;;;11.23;8.02;;;;;;;15.49;67.51;99333.66;5548527;32;33704;-56
2023/04/13 16:31:18;;;;;;;13.98;7.90;;;;;;;15.55;64.75;99336.91;5548403;32;34401;-57
2023/04/13 16:34:21;;;;;;;14.25;9.10;;;;;;;15.47;65.79;99330.53;5548532;32;33741;-56
2023/04/13 16:37:27;;;;;;;15.80;9.10;;;;;;;15.37;66.88;99333.66;5548276;32;33613;-56
2023/04/13 16:40:30;;;;;;;14.87;8.50;;;;;;;15.46;65.42;99331.66;5548267;32;33735;-56
2023/04/13 16:43:32;;;;;;;16.05;8.77;;;;;;;15.37;72.41;99338.28;5548101;32;34596;-56
2023/04/13 16:46:36;;;;;;;12.95;8.85;;;;;;;15.25;68.76;99339.84;5548219;32;33629;-57
2023/04/13 16:49:38;;;;;;;15.88;9.93;;;;;;;15.24;68.40;99332.09;5547999;32;33623;-56
2023/04/13 16:52:41;;;;;;;14.70;9.55;;;;;;;15.16;68.40;99331.06;5548322;32;33305;-56
2023/04/13 16:55:48;;;;;;;14.02;9.13;;;;;;;15.10;71.73;99326.22;5548013;32;33638;-56
2023/04/13 16:58:51;;;;;;;15.05;9.32;;;;;;;15.21;68.42;99321.97;5548087;32;33738;-56
2023/04/13 17:01:53;;;;;;;12.55;8.50;;;;;;;15.14;69.60;99325.22;5547850;32;33731;-56
2023/04/13 17:04:55;;;;;;;14.05;8.82;;;;;;;15.15;71.04;99326.78;5547992;32;34370;-56
2023/04/13 17:07:58;;;;;;;15.23;8.68;;;;;;;15.21;69.29;99330.84;5547743;32;34492;-56
2023/04/13 17:11:01;;;;;;;16.15;9.15;;;;;;;15.13;70.05;99330.94;5550072;32;34334;-57
2023/04/13 17:14:03;;;;;;;16.35;9.18;;;;;;;15.13;68.41;99337.16;5550559;32;33831;-57
2023/04/13 17:17:05;;;;;;;14.02;9.45;;;;;;;15.13;68.54;99339.84;5550623;32;34418;-57
2023/04/13 17:20:08;;;;;;;13.85;9.30;;;;;;;15.06;68.84;99355.00;5550852;32;33659;-56
2023/04/13 17:23:11;;;;;;;15.68;9.77;;;;;;;15.02;69.72;99363.75;5550516;32;33681;-56
2023/04/13 17:26:13;;;;;;;14.38;9.43;;;;;;;14.97;69.16;99358.59;5549998;32;34347;-56
2023/04/13 17:29:18;;;;;;;20.10;9.35;;;;;;;14.97;68.06;99363.22;5550426;32;34468;-57
2023/04/13 17:32:20;;;;;;;12.05;9.20;;;;;;;14.96;69.12;99367.00;5550414;32;33682;-56
2023/04/13 17:35:23;;;;;;;14.60;8.75;;;;;;;14.88;68.68;99360.59;5550419;32;34442;-57
2023/04/13 17:38:25;;;;;;;13.73;8.75;;;;;;;14.92;69.56;99363.41;5550310;32;33581;-57
2023/04/13 17:41:28;;;;;;;11.82;8.40;;;;;;;14.98;66.58;99359.38;5550044;32;34425;-56
2023/04/13 17:44:30;;;;;;;13.48;8.63;;;;;;;14.88;81.80;99365.19;5550244;32;34599;-56
2023/04/13 17:47:32;;;;;;;14.00;9.23;;;;;;;14.72;70.19;99356.94;5550359;32;33611;-56
2023/04/13 17:50:34;;;;;;;13.40;9.68;;;;;;;14.75;76.93;99369.78;5550242;32;33771;-56
2023/04/13 17:53:37;;;;;;;14.52;9.20;;;;;;;14.61;72.58;99367.38;5550140;32;33737;-56
2023/04/13 17:56:39;;;;;;;16.55;9.15;;;;;;;14.70;72.40;99369.97;5550285;32;33736;-57
2023/04/13 17:59:45;;;;;;;13.68;9.68;;;;;;;14.69;77.39;99379.97;5550119;32;33242;-56
2023/04/13 18:02:51;;;;;;;14.85;8.73;;;;;;;14.73;71.72;99380.88;5550223;32;33821;-56
2023/04/13 18:05:54;;;;;;;11.80;8.85;;;;;;;14.71;75.67;99387.75;5549954;32;34078;-56
2023/04/13 18:08:56;;;;;;;14.27;8.95;;;;;;;14.65;72.56;99384.47;5549804;32;33718;-57
2023/04/13 18:11:58;;;;;;;14.60;9.70;;;;;;;14.81;70.26;99392.72;5550074;32;34336;-56
2023/04/13 18:15:01;;;;;;;13.82;8.23;;;;;;;14.69;71.95;99389.97;5550001;32;34437;-56
2023/04/13 18:18:04;;;;;;;15.43;9.07;;;;;;;14.52;71.53;99391.69;5549869;32;33783;-56
2023/04/13 18:21:07;;;;;;;11.55;8.20;;;;;;;14.61;70.11;99391.63;5549908;32;33615;-57
2023/04/13 18:24:09;;;;;;;13.68;7.40;;;;;;;14.49;73.59;99396.94;5549767;32;33209;-57